sensor_id;sensor_type;location;lat;lon;timestamp;P1;durP1;ratioP1;P2;durP2;ratioP2
8536;SDS011;4306;50.210;10.628;2022-07-12T00:02:17;1.00;;;0.82;;
8536;SDS011;4306;50.210;10.628;2022-07-12T00:04:44;2.13;;;0.85;;
8536;SDS011;4306;50.210;10.628;2022-07-12T00:07:11;1.55;;;0.90;;
8536;SDS011;4306;50.210;10.628;2022-07-12T00:09:39;1.30;;;0.70;;
8536;SDS011;4306;50.210;10.628;2022-07-12T00:12:06;1.63;;;0.77;;
8536;SDS011;4306;50.210;10.628;2022-07-12T00:14:34;1.33;;;0.85;;
8536;SDS011;4306;50.210;10.628;2022-07-12T00:17:01;1.15;;;0.60;;
8536;SDS011;4306;50.210;10.628;2022-07-12T00:19:29;2.75;;;0.70;;
8536;SDS011;4306;50.210;10.628;2022-07-12T00:21:57;0.98;;;0.88;;
8536;SDS011;4306;50.210;10.628;2022-07-12T00:24:24;0.65;;;0.65;;
8536;SDS011;4306;50.210;10.628;2022-07-12T00:26:52;1.02;;;0.80;;
8536;SDS011;4306;50.210;10.628;2022-07-12T00:29:19;2.50;;;0.60;;
8536;SDS011;4306;50.210;10.628;2022-07-12T00:31:47;1.40;;;0.57;;
8536;SDS011;4306;50.210;10.628;2022-07-12T00:34:14;1.17;;;0.73;;
8536;SDS011;4306;50.210;10.628;2022-07-12T00:36:41;1.25;;;0.85;;
8536;SDS011;4306;50.210;10.628;2022-07-12T00:39:08;92.18;;;24.90;;
8536;SDS011;4306;50.210;10.628;2022-07-12T00:41:35;415.83;;;39.55;;
8536;SDS011;4306;50.210;10.628;2022-07-12T00:44:03;28.50;;;26.15;;
8536;SDS011;4306;50.210;10.628;2022-07-12T00:46:30;816.38;;;62.80;;
8536;SDS011;4306;50.210;10.628;2022-07-12T00:48:57;2.25;;;0.82;;
8536;SDS011;4306;50.210;10.628;2022-07-12T00:51:25;1.17;;;0.80;;
8536;SDS011;4306;50.210;10.628;2022-07-12T00:53:52;52.40;;;36.65;;
8536;SDS011;4306;50.210;10.628;2022-07-12T00:56:22;1.52;;;0.70;;
8536;SDS011;4306;50.210;10.628;2022-07-12T00:58:49;1.20;;;0.73;;
8536;SDS011;4306;50.210;10.628;2022-07-12T01:01:17;1.27;;;1.00;;
8536;SDS011;4306;50.210;10.628;2022-07-12T01:03:44;0.73;;;0.50;;
8536;SDS011;4306;50.210;10.628;2022-07-12T01:06:12;1.25;;;0.70;;
8536;SDS011;4306;50.210;10.628;2022-07-12T01:08:38;149.55;;;39.00;;
8536;SDS011;4306;50.210;10.628;2022-07-12T01:11:07;1539.60;;;102.90;;
8536;SDS011;4306;50.210;10.628;2022-07-12T01:13:34;2.10;;;0.90;;
8536;SDS011;4306;50.210;10.628;2022-07-12T01:16:02;21.98;;;20.85;;
8536;SDS011;4306;50.210;10.628;2022-07-12T01:18:32;2.70;;;1.00;;
8536;SDS011;4306;50.210;10.628;2022-07-12T01:21:00;0.88;;;0.60;;
8536;SDS011;4306;50.210;10.628;2022-07-12T01:23:31;1.48;;;1.10;;
8536;SDS011;4306;50.210;10.628;2022-07-12T01:25:59;0.10;;;0.10;;
8536;SDS011;4306;50.210;10.628;2022-07-12T01:28:27;0.43;;;0.43;;
8536;SDS011;4306;50.210;10.628;2022-07-12T01:30:54;0.10;;;0.10;;
8536;SDS011;4306;50.210;10.628;2022-07-12T01:33:21;0.00;;;0.00;;
8536;SDS011;4306;50.210;10.628;2022-07-12T01:35:48;0.00;;;0.00;;
8536;SDS011;4306;50.210;10.628;2022-07-12T01:38:15;0.00;;;0.00;;
8536;SDS011;4306;50.210;10.628;2022-07-12T01:40:44;0.00;;;0.00;;
8536;SDS011;4306;50.210;10.628;2022-07-12T01:43:12;0.32;;;0.32;;
8536;SDS011;4306;50.210;10.628;2022-07-12T01:45:39;0.00;;;0.00;;
8536;SDS011;4306;50.210;10.628;2022-07-12T01:48:07;0.00;;;0.00;;
8536;SDS011;4306;50.210;10.628;2022-07-12T01:50:34;0.00;;;0.00;;
8536;SDS011;4306;50.210;10.628;2022-07-12T01:53:02;0.80;;;0.80;;
8536;SDS011;4306;50.210;10.628;2022-07-12T01:55:32;0.00;;;0.00;;
8536;SDS011;4306;50.210;10.628;2022-07-12T01:58:00;0.00;;;0.00;;
8536;SDS011;4306;50.210;10.628;2022-07-12T02:00:27;0.00;;;0.00;;
8536;SDS011;4306;50.210;10.628;2022-07-12T02:02:55;0.00;;;0.00;;
8536;SDS011;4306;50.210;10.628;2022-07-12T02:05:22;0.00;;;0.00;;
8536;SDS011;4306;50.210;10.628;2022-07-12T02:07:50;0.00;;;0.00;;
8536;SDS011;4306;50.210;10.628;2022-07-12T02:10:17;0.00;;;0.00;;
8536;SDS011;4306;50.210;10.628;2022-07-12T02:12:44;0.00;;;0.00;;
8536;SDS011;4306;50.210;10.628;2022-07-12T02:15:13;0.00;;;0.00;;
8536;SDS011;4306;50.210;10.628;2022-07-12T02:17:40;0.00;;;0.00;;
8536;SDS011;4306;50.210;10.628;2022-07-12T02:20:08;0.00;;;0.00;;
8536;SDS011;4306;50.210;10.628;2022-07-12T02:22:38;0.00;;;0.00;;
8536;SDS011;4306;50.210;10.628;2022-07-12T02:25:05;0.00;;;0.00;;
8536;SDS011;4306;50.210;10.628;2022-07-12T02:27:32;0.00;;;0.00;;
8536;SDS011;4306;50.210;10.628;2022-07-12T02:29:59;0.00;;;0.00;;
8536;SDS011;4306;50.210;10.628;2022-07-12T02:32:28;0.00;;;0.00;;
8536;SDS011;4306;50.210;10.628;2022-07-12T02:34:55;0.00;;;0.00;;
8536;SDS011;4306;50.210;10.628;2022-07-12T02:37:21;0.00;;;0.00;;
8536;SDS011;4306;50.210;10.628;2022-07-12T02:39:48;0.00;;;0.00;;
8536;SDS011;4306;50.210;10.628;2022-07-12T02:42:15;0.00;;;0.00;;
8536;SDS011;4306;50.210;10.628;2022-07-12T02:44:42;0.00;;;0.00;;
8536;SDS011;4306;50.210;10.628;2022-07-12T02:47:09;0.00;;;0.00;;
8536;SDS011;4306;50.210;10.628;2022-07-12T02:49:37;0.00;;;0.00;;
8536;SDS011;4306;50.210;10.628;2022-07-12T02:52:05;0.00;;;0.00;;
8536;SDS011;4306;50.210;10.628;2022-07-12T02:54:32;0.00;;;0.00;;
8536;SDS011;4306;50.210;10.628;2022-07-12T02:56:59;0.00;;;0.00;;
8536;SDS011;4306;50.210;10.628;2022-07-12T02:59:26;0.00;;;0.00;;
8536;SDS011;4306;50.210;10.628;2022-07-12T03:01:53;0.00;;;0.00;;
8536;SDS011;4306;50.210;10.628;2022-07-12T03:04:19;0.00;;;0.00;;
8536;SDS011;4306;50.210;10.628;2022-07-12T03:06:48;0.00;;;0.00;;
8536;SDS011;4306;50.210;10.628;2022-07-12T03:09:15;0.00;;;0.00;;
8536;SDS011;4306;50.210;10.628;2022-07-12T03:11:42;0.00;;;0.00;;
8536;SDS011;4306;50.210;10.628;2022-07-12T03:14:08;0.00;;;0.00;;
8536;SDS011;4306;50.210;10.628;2022-07-12T03:16:35;0.00;;;0.00;;
8536;SDS011;4306;50.210;10.628;2022-07-12T03:19:02;0.00;;;0.00;;
8536;SDS011;4306;50.210;10.628;2022-07-12T03:21:29;0.00;;;0.00;;
8536;SDS011;4306;50.210;10.628;2022-07-12T03:23:58;0.00;;;0.00;;
8536;SDS011;4306;50.210;10.628;2022-07-12T03:26:24;0.00;;;0.00;;
8536;SDS011;4306;50.210;10.628;2022-07-12T03:28:51;0.00;;;0.00;;
8536;SDS011;4306;50.210;10.628;2022-07-12T03:31:18;0.00;;;0.00;;
8536;SDS011;4306;50.210;10.628;2022-07-12T03:33:45;0.00;;;0.00;;
8536;SDS011;4306;50.210;10.628;2022-07-12T03:36:12;0.00;;;0.00;;
8536;SDS011;4306;50.210;10.628;2022-07-12T03:38:39;0.00;;;0.00;;
8536;SDS011;4306;50.210;10.628;2022-07-12T03:41:09;0.00;;;0.00;;
8536;SDS011;4306;50.210;10.628;2022-07-12T03:43:36;0.00;;;0.00;;
8536;SDS011;4306;50.210;10.628;2022-07-12T03:46:03;0.00;;;0.00;;
8536;SDS011;4306;50.210;10.628;2022-07-12T03:48:30;0.00;;;0.00;;
8536;SDS011;4306;50.210;10.628;2022-07-12T03:50:57;0.00;;;0.00;;
8536;SDS011;4306;50.210;10.628;2022-07-12T03:53:24;0.00;;;0.00;;
8536;SDS011;4306;50.210;10.628;2022-07-12T03:55:51;0.00;;;0.00;;
8536;SDS011;4306;50.210;10.628;2022-07-12T03:58:19;27.27;;;2.25;;
8536;SDS011;4306;50.210;10.628;2022-07-12T04:00:46;1.42;;;0.90;;
8536;SDS011;4306;50.210;10.628;2022-07-12T04:03:14;4.20;;;0.93;;
8536;SDS011;4306;50.210;10.628;2022-07-12T04:05:41;9.18;;;1.20;;
8536;SDS011;4306;50.210;10.628;2022-07-12T04:08:08;6.97;;;1.10;;
8536;SDS011;4306;50.210;10.628;2022-07-12T04:10:35;6.97;;;1.35;;
8536;SDS011;4306;50.210;10.628;2022-07-12T04:13:02;3.22;;;1.17;;
8536;SDS011;4306;50.210;10.628;2022-07-12T04:15:30;7.30;;;1.25;;
8536;SDS011;4306;50.210;10.628;2022-07-12T04:17:57;3.80;;;1.10;;
8536;SDS011;4306;50.210;10.628;2022-07-12T04:20:24;7.10;;;1.80;;
8536;SDS011;4306;50.210;10.628;2022-07-12T04:22:51;4.05;;;1.33;;
8536;SDS011;4306;50.210;10.628;2022-07-12T04:25:18;2.90;;;1.10;;
8536;SDS011;4306;50.210;10.628;2022-07-12T04:27:45;4.60;;;1.25;;
8536;SDS011;4306;50.210;10.628;2022-07-12T04:30:12;5.63;;;1.00;;
8536;SDS011;4306;50.210;10.628;2022-07-12T04:32:41;5.25;;;1.02;;
8536;SDS011;4306;50.210;10.628;2022-07-12T04:35:08;3.63;;;1.00;;
8536;SDS011;4306;50.210;10.628;2022-07-12T04:37:35;5.68;;;1.25;;
8536;SDS011;4306;50.210;10.628;2022-07-12T04:40:02;4.60;;;1.55;;
8536;SDS011;4306;50.210;10.628;2022-07-12T04:42:29;4.30;;;1.52;;
8536;SDS011;4306;50.210;10.628;2022-07-12T04:44:56;2.83;;;1.90;;
8536;SDS011;4306;50.210;10.628;2022-07-12T04:47:23;3.83;;;2.20;;
8536;SDS011;4306;50.210;10.628;2022-07-12T04:49:51;95.88;;;14.00;;
8536;SDS011;4306;50.210;10.628;2022-07-12T04:52:18;5.10;;;1.77;;
8536;SDS011;4306;50.210;10.628;2022-07-12T04:54:46;1.88;;;1.40;;
8536;SDS011;4306;50.210;10.628;2022-07-12T04:57:13;0.93;;;0.93;;
8536;SDS011;4306;50.210;10.628;2022-07-12T04:59:40;1.73;;;1.15;;
8536;SDS011;4306;50.210;10.628;2022-07-12T05:02:07;6.22;;;2.00;;
8536;SDS011;4306;50.210;10.628;2022-07-12T05:04:34;6.30;;;1.58;;
8536;SDS011;4306;50.210;10.628;2022-07-12T05:07:03;1.90;;;1.40;;
8536;SDS011;4306;50.210;10.628;2022-07-12T05:09:30;1.77;;;1.48;;
8536;SDS011;4306;50.210;10.628;2022-07-12T05:11:57;3.25;;;1.38;;
8536;SDS011;4306;50.210;10.628;2022-07-12T05:14:24;2.63;;;1.67;;
8536;SDS011;4306;50.210;10.628;2022-07-12T05:16:51;1.77;;;1.23;;
8536;SDS011;4306;50.210;10.628;2022-07-12T05:19:18;3.17;;;1.38;;
8536;SDS011;4306;50.210;10.628;2022-07-12T05:21:45;2.00;;;1.33;;
8536;SDS011;4306;50.210;10.628;2022-07-12T05:24:13;2.00;;;1.50;;
8536;SDS011;4306;50.210;10.628;2022-07-12T05:26:40;1.58;;;1.40;;
8536;SDS011;4306;50.210;10.628;2022-07-12T05:29:07;2.13;;;1.45;;
8536;SDS011;4306;50.210;10.628;2022-07-12T05:31:34;1.90;;;1.70;;
8536;SDS011;4306;50.210;10.628;2022-07-12T05:34:01;1.60;;;1.40;;
8536;SDS011;4306;50.210;10.628;2022-07-12T05:36:28;3.97;;;1.90;;
8536;SDS011;4306;50.210;10.628;2022-07-12T05:38:55;1.40;;;1.27;;
8536;SDS011;4306;50.210;10.628;2022-07-12T05:41:24;1.65;;;1.30;;
8536;SDS011;4306;50.210;10.628;2022-07-12T05:43:51;2.45;;;1.38;;
8536;SDS011;4306;50.210;10.628;2022-07-12T05:46:18;1.40;;;1.30;;
8536;SDS011;4306;50.210;10.628;2022-07-12T05:48:45;1.58;;;1.35;;
8536;SDS011;4306;50.210;10.628;2022-07-12T05:51:11;1.20;;;1.10;;
8536;SDS011;4306;50.210;10.628;2022-07-12T05:53:56;1.50;;;1.30;;
8536;SDS011;4306;50.210;10.628;2022-07-12T05:56:24;1.38;;;1.27;;
8536;SDS011;4306;50.210;10.628;2022-07-12T05:58:51;3.13;;;1.27;;
8536;SDS011;4306;50.210;10.628;2022-07-12T06:01:20;1.83;;;1.50;;
8536;SDS011;4306;50.210;10.628;2022-07-12T06:03:47;1.52;;;1.10;;
8536;SDS011;4306;50.210;10.628;2022-07-12T06:06:14;1.70;;;1.40;;
8536;SDS011;4306;50.210;10.628;2022-07-12T06:08:42;1999.90;;;999.90;;
8536;SDS011;4306;50.210;10.628;2022-07-12T06:11:09;1999.90;;;999.90;;
8536;SDS011;4306;50.210;10.628;2022-07-12T06:13:38;516.95;;;266.23;;
8536;SDS011;4306;50.210;10.628;2022-07-12T06:16:06;1999.90;;;999.90;;
8536;SDS011;4306;50.210;10.628;2022-07-12T06:18:35;1999.90;;;999.90;;
8536;SDS011;4306;50.210;10.628;2022-07-12T06:21:02;130.82;;;122.90;;
8536;SDS011;4306;50.210;10.628;2022-07-12T06:23:29;337.50;;;50.40;;
8536;SDS011;4306;50.210;10.628;2022-07-12T06:25:57;1999.90;;;999.90;;
8536;SDS011;4306;50.210;10.628;2022-07-12T06:28:24;1999.90;;;999.90;;
8536;SDS011;4306;50.210;10.628;2022-07-12T06:30:53;1999.90;;;999.90;;
8536;SDS011;4306;50.210;10.628;2022-07-12T06:33:20;1999.90;;;999.90;;
8536;SDS011;4306;50.210;10.628;2022-07-12T06:35:47;1999.90;;;999.90;;
8536;SDS011;4306;50.210;10.628;2022-07-12T06:38:15;292.70;;;91.65;;
8536;SDS011;4306;50.210;10.628;2022-07-12T06:40:42;9.07;;;8.57;;
8536;SDS011;4306;50.210;10.628;2022-07-12T06:43:09;29.65;;;27.95;;
8536;SDS011;4306;50.210;10.628;2022-07-12T06:45:38;46.42;;;44.42;;
8536;SDS011;4306;50.210;10.628;2022-07-12T06:48:11;25.88;;;24.67;;
8536;SDS011;4306;50.210;10.628;2022-07-12T06:50:44;1.65;;;1.10;;
8536;SDS011;4306;50.210;10.628;2022-07-12T06:53:11;1.50;;;1.13;;
8536;SDS011;4306;50.210;10.628;2022-07-12T06:55:39;2.13;;;1.10;;
8536;SDS011;4306;50.210;10.628;2022-07-12T06:58:06;1.58;;;1.20;;
8536;SDS011;4306;50.210;10.628;2022-07-12T07:00:33;551.03;;;222.68;;
8536;SDS011;4306;50.210;10.628;2022-07-12T07:03:01;299.73;;;176.38;;
8536;SDS011;4306;50.210;10.628;2022-07-12T07:05:29;70.13;;;7.45;;
8536;SDS011;4306;50.210;10.628;2022-07-12T07:07:56;569.65;;;108.47;;
8536;SDS011;4306;50.210;10.628;2022-07-12T07:10:23;161.65;;;31.48;;
8536;SDS011;4306;50.210;10.628;2022-07-12T07:12:50;390.35;;;152.57;;
8536;SDS011;4306;50.210;10.628;2022-07-12T07:15:18;276.48;;;40.83;;
8536;SDS011;4306;50.210;10.628;2022-07-12T07:17:45;3.10;;;0.93;;
8536;SDS011;4306;50.210;10.628;2022-07-12T07:20:12;1999.90;;;999.90;;
8536;SDS011;4306;50.210;10.628;2022-07-12T07:22:41;214.13;;;11.68;;
8536;SDS011;4306;50.210;10.628;2022-07-12T07:25:08;47.70;;;14.68;;
8536;SDS011;4306;50.210;10.628;2022-07-12T07:27:35;1.00;;;0.90;;
8536;SDS011;4306;50.210;10.628;2022-07-12T07:30:03;591.10;;;66.50;;
8536;SDS011;4306;50.210;10.628;2022-07-12T07:32:49;116.85;;;94.57;;
8536;SDS011;4306;50.210;10.628;2022-07-12T07:35:16;7.90;;;1.45;;
8536;SDS011;4306;50.210;10.628;2022-07-12T07:37:44;1.02;;;0.88;;
8536;SDS011;4306;50.210;10.628;2022-07-12T07:40:11;979.28;;;302.58;;
8536;SDS011;4306;50.210;10.628;2022-07-12T07:42:39;14.27;;;13.48;;
8536;SDS011;4306;50.210;10.628;2022-07-12T07:45:07;1.35;;;0.90;;
8536;SDS011;4306;50.210;10.628;2022-07-12T07:47:42;188.48;;;31.63;;
8536;SDS011;4306;50.210;10.628;2022-07-12T07:50:10;198.93;;;104.30;;
8536;SDS011;4306;50.210;10.628;2022-07-12T07:52:37;329.52;;;169.60;;
8536;SDS011;4306;50.210;10.628;2022-07-12T07:55:06;2.03;;;1.27;;
8536;SDS011;4306;50.210;10.628;2022-07-12T07:57:33;330.23;;;77.88;;
8536;SDS011;4306;50.210;10.628;2022-07-12T08:00:00;885.38;;;196.60;;
8536;SDS011;4306;50.210;10.628;2022-07-12T08:02:27;367.98;;;178.95;;
8536;SDS011;4306;50.210;10.628;2022-07-12T08:04:54;4.03;;;3.47;;
8536;SDS011;4306;50.210;10.628;2022-07-12T08:07:21;5.10;;;1.38;;
8536;SDS011;4306;50.210;10.628;2022-07-12T08:09:48;1.55;;;1.40;;
8536;SDS011;4306;50.210;10.628;2022-07-12T08:12:17;2.83;;;0.90;;
8536;SDS011;4306;50.210;10.628;2022-07-12T08:14:44;321.95;;;52.95;;
8536;SDS011;4306;50.210;10.628;2022-07-12T08:17:11;516.67;;;25.33;;
8536;SDS011;4306;50.210;10.628;2022-07-12T08:19:38;189.27;;;9.98;;
8536;SDS011;4306;50.210;10.628;2022-07-12T08:22:05;54.95;;;4.78;;
8536;SDS011;4306;50.210;10.628;2022-07-12T08:24:32;72.38;;;3.72;;
8536;SDS011;4306;50.210;10.628;2022-07-12T08:26:59;145.93;;;6.72;;
8536;SDS011;4306;50.210;10.628;2022-07-12T08:29:28;197.60;;;22.38;;
8536;SDS011;4306;50.210;10.628;2022-07-12T08:31:55;1.20;;;0.70;;
8536;SDS011;4306;50.210;10.628;2022-07-12T08:34:22;1.00;;;0.80;;
8536;SDS011;4306;50.210;10.628;2022-07-12T08:36:49;2.67;;;0.90;;
8536;SDS011;4306;50.210;10.628;2022-07-12T08:39:16;1.33;;;0.85;;
8536;SDS011;4306;50.210;10.628;2022-07-12T08:41:43;0.85;;;0.80;;
8536;SDS011;4306;50.210;10.628;2022-07-12T08:44:10;1.08;;;0.80;;
8536;SDS011;4306;50.210;10.628;2022-07-12T08:46:39;0.70;;;0.70;;
8536;SDS011;4306;50.210;10.628;2022-07-12T08:49:06;0.88;;;0.70;;
8536;SDS011;4306;50.210;10.628;2022-07-12T08:51:33;1.20;;;0.80;;
8536;SDS011;4306;50.210;10.628;2022-07-12T08:54:07;0.95;;;0.70;;
8536;SDS011;4306;50.210;10.628;2022-07-12T08:56:35;1.67;;;1.00;;
8536;SDS011;4306;50.210;10.628;2022-07-12T08:59:14;1.75;;;0.80;;
8536;SDS011;4306;50.210;10.628;2022-07-12T09:01:44;1.00;;;0.80;;
8536;SDS011;4306;50.210;10.628;2022-07-12T09:04:15;0.90;;;0.70;;
8536;SDS011;4306;50.210;10.628;2022-07-12T09:06:43;1.58;;;0.90;;
8536;SDS011;4306;50.210;10.628;2022-07-12T09:09:10;0.60;;;0.60;;
8536;SDS011;4306;50.210;10.628;2022-07-12T09:11:38;1.05;;;0.75;;
8536;SDS011;4306;50.210;10.628;2022-07-12T09:14:14;1.08;;;0.90;;
8536;SDS011;4306;50.210;10.628;2022-07-12T09:16:58;0.70;;;0.70;;
8536;SDS011;4306;50.210;10.628;2022-07-12T09:19:26;1.80;;;0.80;;
8536;SDS011;4306;50.210;10.628;2022-07-12T09:21:54;0.95;;;0.60;;
8536;SDS011;4306;50.210;10.628;2022-07-12T09:24:24;0.63;;;0.60;;
8536;SDS011;4306;50.210;10.628;2022-07-12T09:26:53;0.60;;;0.60;;
8536;SDS011;4306;50.210;10.628;2022-07-12T09:29:22;1.00;;;0.57;;
8536;SDS011;4306;50.210;10.628;2022-07-12T09:31:51;0.73;;;0.70;;
8536;SDS011;4306;50.210;10.628;2022-07-12T09:34:37;1.15;;;0.70;;
8536;SDS011;4306;50.210;10.628;2022-07-12T09:37:23;0.95;;;0.88;;
8536;SDS011;4306;50.210;10.628;2022-07-12T09:39:51;2.00;;;0.70;;
8536;SDS011;4306;50.210;10.628;2022-07-12T09:42:19;1.35;;;0.68;;
8536;SDS011;4306;50.210;10.628;2022-07-12T09:44:47;1.40;;;0.80;;
8536;SDS011;4306;50.210;10.628;2022-07-12T09:47:15;1.38;;;0.80;;
8536;SDS011;4306;50.210;10.628;2022-07-12T09:49:44;0.60;;;0.60;;
8536;SDS011;4306;50.210;10.628;2022-07-12T09:52:12;0.57;;;0.50;;
8536;SDS011;4306;50.210;10.628;2022-07-12T09:54:46;0.70;;;0.70;;
8536;SDS011;4306;50.210;10.628;2022-07-12T09:57:17;0.93;;;0.60;;
8536;SDS011;4306;50.210;10.628;2022-07-12T09:59:47;1.35;;;0.70;;
8536;SDS011;4306;50.210;10.628;2022-07-12T10:02:17;2.25;;;0.80;;
8536;SDS011;4306;50.210;10.628;2022-07-12T10:04:46;1.05;;;0.60;;
8536;SDS011;4306;50.210;10.628;2022-07-12T10:07:14;0.63;;;0.60;;
8536;SDS011;4306;50.210;10.628;2022-07-12T10:09:42;1.27;;;0.70;;
8536;SDS011;4306;50.210;10.628;2022-07-12T10:12:11;0.50;;;0.50;;
8536;SDS011;4306;50.210;10.628;2022-07-12T10:14:39;0.95;;;0.80;;
8536;SDS011;4306;50.210;10.628;2022-07-12T10:17:07;0.63;;;0.63;;
8536;SDS011;4306;50.210;10.628;2022-07-12T10:19:35;0.65;;;0.60;;
8536;SDS011;4306;50.210;10.628;2022-07-12T10:22:05;3.35;;;0.80;;
8536;SDS011;4306;50.210;10.628;2022-07-12T10:24:46;0.98;;;0.60;;
8536;SDS011;4306;50.210;10.628;2022-07-12T10:30:12;0.77;;;0.70;;
8536;SDS011;4306;50.210;10.628;2022-07-12T10:32:42;1.40;;;0.88;;
8536;SDS011;4306;50.210;10.628;2022-07-12T10:35:13;1.73;;;1.05;;
8536;SDS011;4306;50.210;10.628;2022-07-12T10:40:47;1.75;;;0.75;;
8536;SDS011;4306;50.210;10.628;2022-07-12T10:43:16;1.05;;;0.77;;
8536;SDS011;4306;50.210;10.628;2022-07-12T10:46:16;0.60;;;0.60;;
8536;SDS011;4306;50.210;10.628;2022-07-12T10:48:45;0.82;;;0.73;;
8536;SDS011;4306;50.210;10.628;2022-07-12T10:51:13;1.00;;;0.80;;
8536;SDS011;4306;50.210;10.628;2022-07-12T10:53:45;2.88;;;0.73;;
8536;SDS011;4306;50.210;10.628;2022-07-12T10:56:23;1.00;;;0.77;;
8536;SDS011;4306;50.210;10.628;2022-07-12T10:58:53;0.60;;;0.60;;
8536;SDS011;4306;50.210;10.628;2022-07-12T11:01:22;0.10;;;0.10;;
8536;SDS011;4306;50.210;10.628;2022-07-12T11:03:51;0.95;;;0.70;;
8536;SDS011;4306;50.210;10.628;2022-07-12T11:06:20;0.88;;;0.68;;
8536;SDS011;4306;50.210;10.628;2022-07-12T11:08:56;0.50;;;0.50;;
8536;SDS011;4306;50.210;10.628;2022-07-12T11:11:25;1.58;;;0.57;;
8536;SDS011;4306;50.210;10.628;2022-07-12T11:13:53;0.50;;;0.50;;
8536;SDS011;4306;50.210;10.628;2022-07-12T11:16:21;3.67;;;0.70;;
8536;SDS011;4306;50.210;10.628;2022-07-12T11:18:49;0.40;;;0.40;;
8536;SDS011;4306;50.210;10.628;2022-07-12T11:21:17;0.73;;;0.40;;
8536;SDS011;4306;50.210;10.628;2022-07-12T11:23:44;0.60;;;0.60;;
8536;SDS011;4306;50.210;10.628;2022-07-12T11:26:13;0.57;;;0.57;;
8536;SDS011;4306;50.210;10.628;2022-07-12T11:28:42;0.50;;;0.50;;
8536;SDS011;4306;50.210;10.628;2022-07-12T11:31:11;0.85;;;0.60;;
8536;SDS011;4306;50.210;10.628;2022-07-12T11:33:40;0.63;;;0.63;;
8536;SDS011;4306;50.210;10.628;2022-07-12T11:36:08;0.98;;;0.70;;
8536;SDS011;4306;50.210;10.628;2022-07-12T11:38:37;0.50;;;0.50;;
8536;SDS011;4306;50.210;10.628;2022-07-12T11:41:06;0.57;;;0.57;;
8536;SDS011;4306;50.210;10.628;2022-07-12T11:43:36;9.20;;;8.80;;
8536;SDS011;4306;50.210;10.628;2022-07-12T11:46:04;51.25;;;46.97;;
8536;SDS011;4306;50.210;10.628;2022-07-12T11:48:31;0.22;;;0.22;;
8536;SDS011;4306;50.210;10.628;2022-07-12T11:51:00;69.43;;;65.10;;
8536;SDS011;4306;50.210;10.628;2022-07-12T11:53:29;1999.90;;;999.90;;
8536;SDS011;4306;50.210;10.628;2022-07-12T11:55:57;1999.90;;;999.90;;
8536;SDS011;4306;50.210;10.628;2022-07-12T11:58:26;1999.90;;;999.90;;
8536;SDS011;4306;50.210;10.628;2022-07-12T12:00:56;308.85;;;277.58;;
8536;SDS011;4306;50.210;10.628;2022-07-12T12:03:23;44.50;;;40.47;;
8536;SDS011;4306;50.210;10.628;2022-07-12T12:05:51;8.65;;;8.13;;
8536;SDS011;4306;50.210;10.628;2022-07-12T12:08:19;88.68;;;67.65;;
8536;SDS011;4306;50.210;10.628;2022-07-12T12:10:54;1999.90;;;999.90;;
8536;SDS011;4306;50.210;10.628;2022-07-12T12:13:23;13.18;;;12.57;;
8536;SDS011;4306;50.210;10.628;2022-07-12T12:15:51;1999.90;;;999.90;;
8536;SDS011;4306;50.210;10.628;2022-07-12T12:18:32;1999.90;;;999.90;;
8536;SDS011;4306;50.210;10.628;2022-07-12T12:21:01;1999.90;;;999.90;;
8536;SDS011;4306;50.210;10.628;2022-07-12T12:23:29;1999.90;;;999.90;;
8536;SDS011;4306;50.210;10.628;2022-07-12T12:26:09;1999.90;;;999.90;;
8536;SDS011;4306;50.210;10.628;2022-07-12T12:28:41;1999.90;;;999.90;;
8536;SDS011;4306;50.210;10.628;2022-07-12T12:31:09;1999.90;;;999.90;;
8536;SDS011;4306;50.210;10.628;2022-07-12T12:33:39;1999.90;;;999.90;;
8536;SDS011;4306;50.210;10.628;2022-07-12T12:36:11;1999.90;;;999.90;;
8536;SDS011;4306;50.210;10.628;2022-07-12T12:38:39;1999.90;;;999.90;;
8536;SDS011;4306;50.210;10.628;2022-07-12T12:41:07;1999.90;;;999.90;;
8536;SDS011;4306;50.210;10.628;2022-07-12T12:43:35;1999.90;;;999.90;;
8536;SDS011;4306;50.210;10.628;2022-07-12T12:46:03;1999.90;;;999.90;;
8536;SDS011;4306;50.210;10.628;2022-07-12T12:48:32;1999.90;;;999.90;;
8536;SDS011;4306;50.210;10.628;2022-07-12T12:51:06;1999.90;;;999.90;;
8536;SDS011;4306;50.210;10.628;2022-07-12T12:53:36;1999.90;;;999.90;;
8536;SDS011;4306;50.210;10.628;2022-07-12T12:56:05;1999.90;;;999.90;;
8536;SDS011;4306;50.210;10.628;2022-07-12T12:58:34;1999.90;;;999.90;;
8536;SDS011;4306;50.210;10.628;2022-07-12T13:01:03;25.25;;;24.17;;
8536;SDS011;4306;50.210;10.628;2022-07-12T13:03:31;1999.90;;;999.90;;
8536;SDS011;4306;50.210;10.628;2022-07-12T13:05:59;523.40;;;271.23;;
8536;SDS011;4306;50.210;10.628;2022-07-12T13:08:29;1999.90;;;999.90;;
8536;SDS011;4306;50.210;10.628;2022-07-12T13:10:55;1999.90;;;999.90;;
8536;SDS011;4306;50.210;10.628;2022-07-12T13:13:40;1999.90;;;999.90;;
8536;SDS011;4306;50.210;10.628;2022-07-12T13:16:08;1999.90;;;999.90;;
8536;SDS011;4306;50.210;10.628;2022-07-12T13:18:35;1999.90;;;999.90;;
8536;SDS011;4306;50.210;10.628;2022-07-12T13:21:02;1999.90;;;999.90;;
8536;SDS011;4306;50.210;10.628;2022-07-12T13:23:31;1999.90;;;999.90;;
8536;SDS011;4306;50.210;10.628;2022-07-12T13:25:58;1999.90;;;999.90;;
8536;SDS011;4306;50.210;10.628;2022-07-12T13:28:25;1999.90;;;999.90;;
8536;SDS011;4306;50.210;10.628;2022-07-12T13:30:53;1999.90;;;999.90;;
8536;SDS011;4306;50.210;10.628;2022-07-12T13:33:21;1999.90;;;999.90;;
8536;SDS011;4306;50.210;10.628;2022-07-12T13:35:48;1999.90;;;999.90;;
8536;SDS011;4306;50.210;10.628;2022-07-12T13:38:15;1999.90;;;999.90;;
8536;SDS011;4306;50.210;10.628;2022-07-12T13:40:44;10.50;;;10.07;;
8536;SDS011;4306;50.210;10.628;2022-07-12T13:43:11;11.95;;;11.35;;
8536;SDS011;4306;50.210;10.628;2022-07-12T13:45:39;16.55;;;15.75;;
8536;SDS011;4306;50.210;10.628;2022-07-12T13:48:09;1999.90;;;999.90;;
8536;SDS011;4306;50.210;10.628;2022-07-12T13:50:37;16.35;;;15.65;;
8536;SDS011;4306;50.210;10.628;2022-07-12T13:53:05;1999.90;;;999.90;;
8536;SDS011;4306;50.210;10.628;2022-07-12T13:55:32;451.35;;;141.07;;
8536;SDS011;4306;50.210;10.628;2022-07-12T13:58:01;2.08;;;1.98;;
8536;SDS011;4306;50.210;10.628;2022-07-12T14:00:32;3.17;;;3.05;;
8536;SDS011;4306;50.210;10.628;2022-07-12T14:02:59;1.35;;;1.35;;
8536;SDS011;4306;50.210;10.628;2022-07-12T14:05:26;0.10;;;0.10;;
8536;SDS011;4306;50.210;10.628;2022-07-12T14:07:53;0.43;;;0.43;;
8536;SDS011;4306;50.210;10.628;2022-07-12T14:10:20;0.50;;;0.50;;
8536;SDS011;4306;50.210;10.628;2022-07-12T14:12:47;1.15;;;1.15;;
8536;SDS011;4306;50.210;10.628;2022-07-12T14:15:16;0.50;;;0.50;;
8536;SDS011;4306;50.210;10.628;2022-07-12T14:18:01;0.65;;;0.65;;
8536;SDS011;4306;50.210;10.628;2022-07-12T14:20:31;0.43;;;0.43;;
8536;SDS011;4306;50.210;10.628;2022-07-12T14:22:58;37.13;;;34.50;;
8536;SDS011;4306;50.210;10.628;2022-07-12T14:25:26;2.63;;;2.53;;
8536;SDS011;4306;50.210;10.628;2022-07-12T14:27:53;26.13;;;24.60;;
8536;SDS011;4306;50.210;10.628;2022-07-12T14:30:22;0.55;;;0.55;;
8536;SDS011;4306;50.210;10.628;2022-07-12T14:32:49;0.60;;;0.60;;
8536;SDS011;4306;50.210;10.628;2022-07-12T14:35:16;5.43;;;5.13;;
8536;SDS011;4306;50.210;10.628;2022-07-12T14:37:43;2.20;;;2.13;;
8536;SDS011;4306;50.210;10.628;2022-07-12T14:40:10;0.70;;;0.70;;
8536;SDS011;4306;50.210;10.628;2022-07-12T14:42:38;1.30;;;1.30;;
8536;SDS011;4306;50.210;10.628;2022-07-12T14:45:06;1.25;;;1.25;;
8536;SDS011;4306;50.210;10.628;2022-07-12T14:47:35;0.70;;;0.70;;
8536;SDS011;4306;50.210;10.628;2022-07-12T14:50:03;1.17;;;1.17;;
8536;SDS011;4306;50.210;10.628;2022-07-12T14:52:32;0.75;;;0.75;;
8536;SDS011;4306;50.210;10.628;2022-07-12T14:54:59;0.50;;;0.50;;
8536;SDS011;4306;50.210;10.628;2022-07-12T14:57:26;1.30;;;1.30;;
8536;SDS011;4306;50.210;10.628;2022-07-12T14:59:53;0.60;;;0.60;;